Time;durP1;ratioP1;P1;durP2;ratioP2;P2;SDS_P1;SDS_P2;PMS_P1;PMS_P2;Temp;Humidity;BMP_temperature;BMP_pressure;BME280_temperature;BME280_humidity;BME280_pressure;Samples;Min_cycle;Max_cycle;Signal;HPM_P1;HPM_P2
2022/12/14 00:01:36;;;;;;;37.88;21.23;;;-2.10;99.90;;;;;;5034986;28;20404;-73
2022/12/14 00:04:01;;;;;;;34.55;19.48;;;-2.10;99.90;;;;;;5034892;28;20045;-73
2022/12/14 00:06:29;;;;;;;35.50;19.77;;;-2.10;99.90;;;;;;5046017;28;20440;-74
2022/12/14 00:08:57;;;;;;;34.60;18.02;;;-2.10;99.90;;;;;;5051781;28;20465;-74
2022/12/14 00:11:24;;;;;;;30.23;17.60;;;-1.90;99.90;;;;;;5051749;28;20090;-74
2022/12/14 00:13:58;;;;;;;32.00;19.52;;;-1.80;99.90;;;;;;5035142;28;20047;-74
2022/12/14 00:16:26;;;;;;;35.40;20.13;;;-1.80;99.90;;;;;;5034065;28;20055;-74
2022/12/14 00:18:54;;;;;;;35.10;19.40;;;-1.80;99.90;;;;;;5035099;28;20461;-74
2022/12/14 00:21:20;;;;;;;35.55;19.73;;;-1.90;99.90;;;;;;5054717;28;20037;-74
2022/12/14 00:23:47;;;;;;;37.63;20.40;;;-2.20;99.90;;;;;;5071423;28;20049;-74
2022/12/14 00:26:25;;;;;;;36.10;19.85;;;-2.50;99.90;;;;;;5056132;28;20489;-74
2022/12/14 00:28:52;;;;;;;34.58;19.42;;;-2.50;99.90;;;;;;5075111;28;20070;-74
2022/12/14 00:31:19;;;;;;;36.13;20.10;;;-2.50;99.90;;;;;;5075035;28;20055;-74
2022/12/14 00:33:44;;;;;;;36.38;19.88;;;-2.40;99.90;;;;;;5058389;28;20481;-74
2022/12/14 00:36:11;;;;;;;35.65;20.15;;;-2.30;99.90;;;;;;5072857;28;20040;-74
2022/12/14 00:38:37;;;;;;;39.55;20.85;;;-2.40;99.90;;;;;;5038351;28;20045;-74
2022/12/14 00:41:04;;;;;;;39.05;20.45;;;-2.40;99.90;;;;;;5054855;28;20125;-74
2022/12/14 00:43:29;;;;;;;35.85;20.40;;;-2.50;99.90;;;;;;5038275;28;20048;-74
2022/12/14 00:45:55;;;;;;;34.92;19.95;;;-2.60;99.90;;;;;;5037318;28;20397;-74
2022/12/14 00:48:23;;;;;;;35.17;20.30;;;-2.60;99.90;;;;;;5037429;28;20091;-74
2022/12/14 00:50:50;;;;;;;35.58;20.40;;;-2.60;99.90;;;;;;5066024;28;20117;-74
2022/12/14 00:53:16;;;;;;;33.55;19.10;;;-2.60;99.90;;;;;;5075024;28;20036;-74
2022/12/14 00:55:43;;;;;;;31.13;18.08;;;-2.50;99.90;;;;;;5058091;28;20048;-74
2022/12/14 00:58:11;;;;;;;32.95;19.08;;;-2.50;99.90;;;;;;5038095;28;20086;-74
2022/12/14 01:00:37;;;;;;;31.27;19.60;;;-2.50;99.90;;;;;;5038051;28;20041;-74
2022/12/14 01:03:03;;;;;;;30.52;17.90;;;-2.50;99.90;;;;;;5053819;28;20044;-73
2022/12/14 01:05:29;;;;;;;34.53;20.25;;;-2.50;99.90;;;;;;5074638;28;20400;-74
2022/12/14 01:07:55;;;;;;;33.00;18.75;;;-2.50;99.90;;;;;;5058137;28;20095;-74
2022/12/14 01:10:20;;;;;;;35.05;19.85;;;-2.50;99.90;;;;;;5054218;28;20033;-74
2022/12/14 01:12:46;;;;;;;32.30;19.15;;;-2.50;99.90;;;;;;5054501;28;20041;-74
2022/12/14 01:15:12;;;;;;;33.45;18.42;;;-2.50;99.90;;;;;;5036953;28;20091;-74
2022/12/14 01:17:38;;;;;;;35.17;18.77;;;-2.50;99.90;;;;;;5037342;28;20044;-74
2022/12/14 01:20:04;;;;;;;31.50;17.90;;;-2.50;99.90;;;;;;5054413;28;20045;-74
2022/12/14 01:22:29;;;;;;;35.20;19.15;;;-2.50;99.90;;;;;;5037492;28;20041;-74
2022/12/14 01:24:55;;;;;;;31.23;17.42;;;-2.50;99.90;;;;;;5054442;28;20033;-74
2022/12/14 01:27:21;;;;;;;34.08;18.27;;;-2.60;99.90;;;;;;5062972;28;20037;-74
2022/12/14 01:29:46;;;;;;;33.03;18.30;;;-2.70;99.90;;;;;;5056280;28;20455;-74
2022/12/14 01:32:12;;;;;;;39.25;19.58;;;-2.80;99.90;;;;;;5073902;28;20049;-74
2022/12/14 01:34:37;;;;;;;41.85;20.88;;;-2.90;99.90;;;;;;5057316;28;20045;-74
2022/12/14 01:37:03;;;;;;;33.83;19.05;;;-3.10;99.90;;;;;;5046561;28;20421;-74
2022/12/14 01:39:29;;;;;;;38.10;19.45;;;-3.20;99.90;;;;;;5037135;28;20040;-74
2022/12/14 01:41:54;;;;;;;36.17;19.25;;;-3.10;99.90;;;;;;5053818;28;20122;-74
2022/12/14 01:44:20;;;;;;;36.65;19.75;;;-3.10;99.90;;;;;;5036557;28;20458;-74
2022/12/14 01:47:05;;;;;;;34.78;19.45;;;-3.10;99.90;;;;;;5036665;28;20432;-74
2022/12/14 01:49:37;;;;;;;32.35;17.88;;;-3.10;99.90;;;;;;5053660;28;20049;-74
2022/12/14 01:52:08;;;;;;;35.00;18.73;;;-3.10;99.90;;;;;;5037074;28;20083;-74
2022/12/14 01:55:05;;;;;;;36.00;18.23;;;-3.00;99.90;;;;;;5037020;28;20041;-74
2022/12/14 01:58:04;;;;;;;35.67;18.17;;;-3.10;99.90;;;;;;5023326;28;20106;-74
2022/12/14 02:00:29;;;;;;;32.58;18.00;;;-3.10;99.90;;;;;;5036552;28;20081;-74
2022/12/14 02:03:01;;;;;;;31.65;17.85;;;-3.10;99.90;;;;;;5036806;28;20072;-74
2022/12/14 02:05:29;;;;;;;36.90;19.48;;;-3.10;99.90;;;;;;5036551;28;20530;-74
2022/12/14 02:07:55;;;;;;;31.80;18.02;;;-3.10;99.90;;;;;;5036333;28;20041;-74
2022/12/14 02:10:25;;;;;;;34.03;19.15;;;-3.10;99.90;;;;;;5036603;28;20036;-74
2022/12/14 02:12:59;;;;;;;32.00;17.75;;;-3.10;99.90;;;;;;5050703;28;20435;-74
2022/12/14 02:15:25;;;;;;;32.83;18.00;;;-3.10;99.90;;;;;;5035578;28;20047;-74
2022/12/14 02:17:51;;;;;;;30.25;18.20;;;-3.20;99.90;;;;;;5038026;28;20119;-74
2022/12/14 02:20:17;;;;;;;34.47;19.42;;;-3.20;99.90;;;;;;5072842;28;20041;-74
2022/12/14 02:22:56;;;;;;;35.72;17.77;;;-3.20;99.90;;;;;;5056306;28;20068;-74
2022/12/14 02:25:30;;;;;;;32.25;16.67;;;-3.20;99.90;;;;;;5056332;28;20072;-74
2022/12/14 02:28:23;;;;;;;30.65;17.35;;;-3.20;99.90;;;;;;5070619;28;20115;-74
2022/12/14 02:30:56;;;;;;;33.38;17.25;;;-3.40;99.90;;;;;;5032837;28;20049;-74
2022/12/14 02:33:51;;;;;;;31.27;17.08;;;-4.00;99.90;;;;;;5032884;28;20041;-74
2022/12/14 02:36:23;;;;;;;27.50;15.52;;;-4.30;99.90;;;;;;5036137;28;20037;-74
2022/12/14 02:39:20;;;;;;;31.25;17.17;;;-4.20;99.90;;;;;;5060188;28;20089;-74
2022/12/14 02:41:46;;;;;;;30.55;16.95;;;-4.10;99.90;;;;;;5054853;28;20577;-74
2022/12/14 02:44:38;;;;;;;32.47;17.77;;;-4.00;99.90;;;;;;5040524;28;20041;-74
2022/12/14 02:47:04;;;;;;;;;;;-4.00;99.90;;;;;;5051905;28;20068;-74
2022/12/14 02:49:32;;;;;;;31.80;16.15;;;-4.10;99.90;;;;;;5049948;28;19967;-74
2022/12/14 02:52:08;;;;;;;33.33;16.88;;;-4.20;99.90;;;;;;5042661;28;20040;-74
2022/12/14 02:54:56;;;;;;;30.88;16.77;;;-4.20;99.90;;;;;;5038681;28;20075;-74
2022/12/14 02:57:32;;;;;;;28.63;15.88;;;-4.30;99.90;;;;;;5058951;28;20044;-74
2022/12/14 03:00:02;;;;;;;29.75;16.38;;;-4.30;99.90;;;;;;5035651;28;20075;-74
2022/12/14 03:02:29;;;;;;;31.65;17.92;;;-4.30;99.90;;;;;;5063556;28;20095;-74
2022/12/14 03:04:55;;;;;;;31.50;16.33;;;-4.30;99.90;;;;;;5072206;28;20504;-74
2022/12/14 03:07:33;;;;;;;30.25;16.75;;;-4.40;99.90;;;;;;5059270;28;20102;-74
2022/12/14 03:10:29;;;;;;;27.90;16.75;;;-4.50;99.90;;;;;;5052096;28;20052;-74
2022/12/14 03:13:28;;;;;;;30.40;16.25;;;-4.50;99.90;;;;;;5050406;28;20078;-74
2022/12/14 03:16:03;;;;;;;31.67;16.73;;;-4.50;99.90;;;;;;5028938;28;20055;-74
2022/12/14 03:18:38;;;;;;;31.67;16.27;;;-4.40;99.90;;;;;;5035007;28;20044;-74
2022/12/14 03:21:07;;;;;;;30.10;16.88;;;-4.40;99.90;;;;;;5051924;28;20045;-74
2022/12/14 03:23:36;;;;;;;29.55;15.70;;;-4.30;99.90;;;;;;5052221;28;20060;-74
2022/12/14 03:26:38;;;;;;;34.05;17.10;;;-4.30;99.90;;;;;;5034757;28;20041;-74
2022/12/14 03:29:10;;;;;;;32.05;16.30;;;-4.40;99.90;;;;;;5016175;28;20041;-74
2022/12/14 03:31:45;;;;;;;30.00;16.13;;;-4.40;99.90;;;;;;5015632;28;20041;-74
2022/12/14 03:34:14;;;;;;;29.50;15.50;;;-4.40;99.90;;;;;;5042372;28;20047;-74
2022/12/14 03:36:52;;;;;;;29.90;15.15;;;-4.50;99.90;;;;;;5051878;28;20497;-74
2022/12/14 03:39:23;;;;;;;32.03;16.73;;;-4.40;99.90;;;;;;5035360;28;20135;-74
2022/12/14 03:42:14;;;;;;;29.50;16.13;;;-4.50;99.90;;;;;;5040873;28;20079;-74
2022/12/14 03:45:07;;;;;;;31.77;17.13;;;-4.60;99.90;;;;;;5026303;28;20524;-74
2022/12/14 03:47:42;;;;;;;28.90;16.33;;;-4.70;99.90;;;;;;5035129;28;20047;-74
2022/12/14 03:50:19;;;;;;;29.35;16.67;;;-4.70;99.90;;;;;;5035232;28;20064;-74
2022/12/14 03:52:52;;;;;;;32.20;17.40;;;-4.70;99.90;;;;;;5035240;28;20049;-73
2022/12/14 03:55:51;;;;;;;29.33;16.27;;;-4.80;99.90;;;;;;5050978;28;20499;-74
2022/12/14 03:58:31;;;;;;;32.45;16.55;;;-4.90;99.90;;;;;;5051739;28;20041;-74
2022/12/14 04:01:11;;;;;;;34.33;17.42;;;-4.90;99.90;;;;;;5054790;28;20055;-73
2022/12/14 04:03:51;;;;;;;31.55;17.50;;;-4.80;99.90;;;;;;5019138;28;20050;-73
2022/12/14 04:06:49;;;;;;;32.47;15.82;;;-4.80;99.90;;;;;;5039520;28;20083;-74
2022/12/14 04:09:36;;;;;;;33.55;16.95;;;-4.80;99.90;;;;;;5075652;28;20090;-74
2022/12/14 04:18:55;;;;;;;32.00;17.67;;;-4.80;99.90;;;;;;5055410;28;20049;-74
2022/12/14 04:20:43;;;;;;;30.88;15.93;;;-5.00;99.90;;;;;;5064561;28;19920;-74
2022/12/14 04:26:16;;;;;;;27.60;15.82;;;-5.00;99.90;;;;;;5074213;28;20048;-74
2022/12/14 04:31:46;;;;;;;68.30;59.28;;;-5.00;99.90;;;;;;5072703;28;20040;-74
2022/12/14 04:34:14;;;;;;;31.92;20.73;;;-5.10;99.90;;;;;;5057445;28;20036;-74
2022/12/14 04:37:01;;;;;;;28.30;15.82;;;-5.00;99.90;;;;;;5058342;28;20040;-73
2022/12/14 04:39:42;;;;;;;31.25;16.15;;;-4.90;99.90;;;;;;5074857;28;20037;-74
2022/12/14 04:42:10;;;;;;;31.92;17.08;;;-4.90;99.90;;;;;;5071564;28;20033;-73
2022/12/14 04:44:43;;;;;;;28.75;15.75;;;-4.90;99.90;;;;;;5058532;28;20423;-74
2022/12/14 04:47:11;;;;;;;31.10;16.75;;;-4.90;99.90;;;;;;5073908;28;20045;-74
2022/12/14 04:49:58;;;;;;;31.73;16.88;;;-5.00;99.90;;;;;;5060332;28;20132;-74
2022/12/14 04:52:35;;;;;;;32.40;17.73;;;-5.00;99.90;;;;;;5042941;28;20503;-74
2022/12/14 04:55:21;;;;;;;33.97;17.23;;;-4.90;99.90;;;;;;5037450;28;20036;-74
2022/12/14 04:58:06;;;;;;;33.88;16.55;;;-4.90;99.90;;;;;;5054630;28;20129;-74
2022/12/14 05:00:36;;;;;;;31.70;15.65;;;-4.80;99.90;;;;;;5057372;28;20405;-73
2022/12/14 05:03:15;;;;;;;32.53;16.27;;;-4.80;99.90;;;;;;5053117;28;20633;-73
2022/12/14 05:06:01;;;;;;;28.98;15.68;;;-4.80;99.90;;;;;;5069009;28;20094;-73
2022/12/14 05:08:26;;;;;;;33.63;17.77;;;-4.80;99.90;;;;;;5037939;28;20417;-73
2022/12/14 05:11:00;;;;;;;32.42;17.80;;;-4.80;99.90;;;;;;5053416;28;20045;-73
2022/12/14 05:13:47;;;;;;;30.17;16.58;;;-4.90;99.90;;;;;;5037360;28;20138;-73
2022/12/14 05:16:18;;;;;;;31.77;17.05;;;-4.90;99.90;;;;;;5038013;28;20049;-73
2022/12/14 05:18:44;;;;;;;31.70;16.37;;;-4.90;99.90;;;;;;5071205;28;20044;-73
2022/12/14 05:23:55;;;;;;;29.95;16.17;;;-4.90;99.90;;;;;;5054131;28;20055;-73
2022/12/14 05:26:21;;;;;;;32.08;16.23;;;-4.90;99.90;;;;;;5037466;28;20041;-73
2022/12/14 05:28:47;;;;;;;26.77;15.32;;;-4.90;99.90;;;;;;5037326;28;20060;-73
2022/12/14 05:31:13;;;;;;;32.38;16.88;;;-4.90;99.90;;;;;;5037594;28;20045;-73
2022/12/14 05:33:38;;;;;;;31.52;16.48;;;-5.00;99.90;;;;;;5037361;28;20048;-73
2022/12/14 05:36:04;;;;;;;32.00;17.10;;;-5.00;99.90;;;;;;5037301;28;20036;-73
2022/12/14 05:38:30;;;;;;;31.90;17.40;;;-5.10;99.90;;;;;;5037255;28;20119;-73
2022/12/14 05:40:55;;;;;;;33.67;17.48;;;-5.10;99.90;;;;;;5037163;28;20139;-73
2022/12/14 05:43:21;;;;;;;34.70;17.88;;;-5.10;99.90;;;;;;5037268;28;20036;-73
2022/12/14 05:45:46;;;;;;;35.38;17.98;;;-5.10;99.90;;;;;;5042984;28;20030;-73
2022/12/14 05:48:12;;;;;;;37.65;18.60;;;-5.00;99.90;;;;;;5033831;28;20045;-73
2022/12/14 05:50:37;;;;;;;32.28;17.63;;;-5.00;99.90;;;;;;5050225;28;20482;-73
2022/12/14 05:53:03;;;;;;;30.50;16.88;;;-5.00;99.90;;;;;;5050230;28;20033;-73
2022/12/14 05:55:28;;;;;;;34.15;18.02;;;-5.10;99.90;;;;;;5017217;28;20080;-73
2022/12/14 05:57:55;;;;;;;34.38;18.42;;;-5.10;99.90;;;;;;5050180;28;20454;-73
2022/12/14 06:00:21;;;;;;;33.50;17.25;;;-5.20;99.90;;;;;;5033517;28;20073;-73
2022/12/14 06:02:46;;;;;;;35.72;18.42;;;-5.10;99.90;;;;;;5061247;28;20071;-73
2022/12/14 06:05:12;;;;;;;34.03;17.48;;;-5.20;99.90;;;;;;5053234;28;20517;-73
2022/12/14 06:07:38;;;;;;;33.35;18.00;;;-5.20;99.90;;;;;;5053658;28;20033;-73
2022/12/14 06:10:04;;;;;;;31.85;16.65;;;-5.30;99.90;;;;;;5070076;28;20120;-73
2022/12/14 06:12:30;;;;;;;31.90;17.05;;;-5.30;99.90;;;;;;5053480;28;20041;-73
2022/12/14 06:14:55;;;;;;;36.75;18.05;;;-5.40;99.90;;;;;;5036583;28;20040;-73
2022/12/14 06:17:21;;;;;;;33.83;16.70;;;-5.40;99.90;;;;;;5053346;28;20043;-73
2022/12/14 06:19:46;;;;;;;28.85;16.85;;;-5.30;99.90;;;;;;5036724;28;20036;-73
2022/12/14 06:22:12;;;;;;;32.00;17.10;;;-5.20;99.90;;;;;;5052336;28;20489;-73
2022/12/14 06:24:38;;;;;;;33.58;17.58;;;-5.20;99.90;;;;;;5053036;28;20378;-73
2022/12/14 06:27:03;;;;;;;35.92;17.00;;;-5.20;99.90;;;;;;5052907;28;20036;-73
2022/12/14 06:29:29;;;;;;;34.08;17.88;;;-5.20;99.90;;;;;;5052960;28;20094;-73
2022/12/14 06:31:54;;;;;;;30.40;16.25;;;-5.20;99.90;;;;;;5049635;28;20120;-74
2022/12/14 06:34:20;;;;;;;30.80;16.25;;;-5.20;99.90;;;;;;5054109;28;20512;-74
2022/12/14 06:36:46;;;;;;;33.08;16.98;;;-5.20;99.90;;;;;;5071688;28;20075;-73
2022/12/14 06:39:14;;;;;;;32.42;18.05;;;-5.20;99.90;;;;;;5072952;28;20032;-74
2022/12/14 06:41:40;;;;;;;33.13;17.15;;;-5.20;99.90;;;;;;5040649;28;20040;-74
2022/12/14 06:44:10;;;;;;;33.05;16.20;;;-5.30;99.90;;;;;;5072638;28;20048;-74
2022/12/14 06:46:36;;;;;;;32.10;17.67;;;-5.40;99.90;;;;;;5052169;28;20389;-74
2022/12/14 06:49:02;;;;;;;33.92;16.60;;;-5.30;99.90;;;;;;5052190;28;20358;-73
2022/12/14 06:51:28;;;;;;;27.95;15.52;;;-5.30;99.90;;;;;;5052742;28;20048;-73
2022/12/14 06:53:55;;;;;;;30.98;14.93;;;-5.30;99.90;;;;;;5035869;28;20037;-74
2022/12/14 06:56:23;;;;;;;31.30;17.13;;;-5.40;99.90;;;;;;5051526;28;20405;-74
2022/12/14 06:58:49;;;;;;;34.53;16.42;;;-5.40;99.90;;;;;;5052302;28;20036;-74
2022/12/14 07:01:16;;;;;;;30.77;16.05;;;-5.50;99.90;;;;;;5042694;28;20378;-73
2022/12/14 07:03:46;;;;;;;41.35;16.77;;;-5.60;99.90;;;;;;5036291;28;20072;-73
2022/12/14 07:06:11;;;;;;;33.45;16.25;;;-5.60;99.90;;;;;;5051614;28;20041;-74
2022/12/14 07:08:38;;;;;;;32.80;16.17;;;-5.60;99.90;;;;;;5054801;28;20033;-73
2022/12/14 07:11:06;;;;;;;34.45;16.63;;;-5.60;99.90;;;;;;5054682;28;20040;-73
2022/12/14 07:13:33;;;;;;;31.55;16.75;;;-5.60;99.90;;;;;;5052139;28;20460;-74
2022/12/14 07:15:59;;;;;;;33.40;17.35;;;-5.70;99.90;;;;;;5051499;28;20049;-74
2022/12/14 07:18:25;;;;;;;31.17;16.55;;;-5.70;99.90;;;;;;5070883;28;20075;-73
2022/12/14 07:21:18;;;;;;;30.92;15.40;;;-5.70;99.90;;;;;;5072005;28;20036;-73
2022/12/14 07:23:45;;;;;;;28.85;16.70;;;-5.80;99.90;;;;;;5031402;28;20443;-73
2022/12/14 07:26:31;;;;;;;33.42;17.38;;;-5.80;99.90;;;;;;5022039;28;20499;-73
2022/12/14 07:29:01;;;;;;;34.55;16.33;;;-5.70;99.90;;;;;;5039967;28;20051;-74
2022/12/14 07:31:27;;;;;;;28.42;15.57;;;-5.70;99.90;;;;;;5051380;28;20302;-73
2022/12/14 07:33:54;;;;;;;29.33;14.77;;;-5.70;99.90;;;;;;5048777;28;20044;-73
2022/12/14 07:36:21;;;;;;;30.15;15.80;;;-5.70;99.90;;;;;;5035594;28;20062;-71
2022/12/14 07:38:49;;;;;;;28.90;14.98;;;-5.80;99.90;;;;;;5047945;28;20060;-71
2022/12/14 07:41:18;;;;;;;32.63;16.65;;;-5.80;99.90;;;;;;5054790;28;20040;-71
2022/12/14 07:43:44;;;;;;;30.48;15.85;;;-5.90;99.90;;;;;;5034628;28;20498;-71
2022/12/14 07:46:13;;;;;;;31.83;16.52;;;-6.00;99.90;;;;;;5050586;28;20067;-71
2022/12/14 07:48:43;;;;;;;28.73;14.55;;;-6.00;99.90;;;;;;5049158;28;20029;-71
2022/12/14 07:51:11;;;;;;;32.15;15.85;;;-6.00;99.90;;;;;;5051451;28;20051;-71
2022/12/14 07:53:38;;;;;;;33.33;15.57;;;-6.00;99.90;;;;;;5037983;28;20097;-71
2022/12/14 07:56:06;;;;;;;35.92;16.17;;;-5.90;99.90;;;;;;5033698;28;20493;-71
2022/12/14 07:58:34;;;;;;;35.22;16.98;;;-6.00;99.90;;;;;;5056631;28;20045;-71
2022/12/14 08:01:12;;;;;;;33.33;16.27;;;-6.00;99.90;;;;;;5050153;28;20179;-71
2022/12/14 08:03:40;;;;;;;35.72;16.30;;;-6.10;99.90;;;;;;5051148;28;20053;-71
2022/12/14 08:06:07;;;;;;;33.15;17.67;;;-6.10;99.90;;;;;;5033266;28;20393;-71
2022/12/14 08:08:33;;;;;;;36.03;17.00;;;-6.20;99.90;;;;;;5071512;28;20127;-71
2022/12/14 08:10:59;;;;;;;33.75;17.23;;;-6.30;99.90;;;;;;5053439;28;20516;-71
2022/12/14 08:13:25;;;;;;;33.72;17.23;;;-6.30;99.90;;;;;;5054714;28;20040;-71
2022/12/14 08:15:50;;;;;;;32.17;16.00;;;-6.20;99.90;;;;;;5050488;28;20037;-71
2022/12/14 08:18:16;;;;;;;32.83;15.90;;;-6.20;99.90;;;;;;5051431;28;20056;-71
2022/12/14 08:20:41;;;;;;;31.83;15.73;;;-6.10;99.90;;;;;;5028277;28;20044;-71
2022/12/14 08:23:07;;;;;;;31.38;15.93;;;-6.00;99.90;;;;;;5038545;28;20131;-71
2022/12/14 08:25:32;;;;;;;32.20;16.58;;;-6.00;99.90;;;;;;5043718;28;20076;-71
2022/12/14 08:27:58;;;;;;;35.78;17.77;;;-6.00;99.90;;;;;;5050291;28;20036;-71
2022/12/14 08:30:24;;;;;;;32.22;17.05;;;-5.90;99.90;;;;;;5029666;28;20033;-71
2022/12/14 08:32:49;;;;;;;29.13;14.73;;;-5.80;99.90;;;;;;5043765;28;20082;-71
2022/12/14 08:35:15;;;;;;;30.45;15.38;;;-5.80;99.90;;;;;;5031688;28;20473;-71
2022/12/14 08:37:41;;;;;;;32.20;16.40;;;-5.90;99.90;;;;;;5044405;28;20037;-71
2022/12/14 08:40:07;;;;;;;32.47;15.65;;;-5.80;99.90;;;;;;5071361;28;20492;-71
2022/12/14 08:42:32;;;;;;;31.23;16.20;;;-5.80;99.90;;;;;;5052544;28;20041;-71
2022/12/14 08:44:58;;;;;;;33.58;16.77;;;-5.80;99.90;;;;;;5034194;28;20527;-71
2022/12/14 08:47:24;;;;;;;45.58;16.50;;;-5.70;99.90;;;;;;5056620;28;20166;-71
2022/12/14 08:49:49;;;;;;;31.20;15.98;;;-5.70;99.90;;;;;;5050762;28;20037;-71
2022/12/14 08:52:15;;;;;;;32.72;16.17;;;-5.70;99.90;;;;;;5049266;28;20116;-71
2022/12/14 08:54:41;;;;;;;31.27;16.10;;;-5.70;99.90;;;;;;5025783;28;20041;-71
2022/12/14 08:57:06;;;;;;;26.70;14.20;;;-5.60;99.90;;;;;;5037064;28;20052;-71
2022/12/14 08:59:32;;;;;;;32.33;15.30;;;-5.60;99.90;;;;;;5035399;28;20175;-71
2022/12/14 09:01:57;;;;;;;30.50;15.18;;;-5.50;99.90;;;;;;5053924;28;20037;-70
2022/12/14 09:04:23;;;;;;;32.45;16.95;;;-5.40;99.90;;;;;;5041558;28;20048;-71
2022/12/14 09:06:49;;;;;;;32.17;16.08;;;-5.30;99.90;;;;;;5041967;28;20045;-71
2022/12/14 09:09:14;;;;;;;32.78;16.58;;;-5.30;99.90;;;;;;5066576;28;20040;-71
2022/12/14 09:11:40;;;;;;;32.25;15.95;;;-5.20;99.90;;;;;;5037973;28;20432;-70
2022/12/14 09:14:06;;;;;;;37.67;17.90;;;-5.20;99.90;;;;;;5037770;28;20497;-71
2022/12/14 09:16:31;;;;;;;30.50;16.20;;;-5.10;99.90;;;;;;5036442;28;20048;-71
2022/12/14 09:18:57;;;;;;;31.85;16.48;;;-5.10;99.90;;;;;;5052943;28;20562;-71
2022/12/14 09:21:23;;;;;;;29.13;15.82;;;-5.10;99.90;;;;;;5037380;28;20068;-71
2022/12/14 09:23:49;;;;;;;32.60;16.48;;;-5.00;99.90;;;;;;5051261;28;20041;-71
2022/12/14 09:26:17;;;;;;;32.95;17.83;;;-4.90;99.90;;;;;;5035417;28;20374;-71
2022/12/14 09:28:50;;;;;;;38.42;17.85;;;-4.90;99.90;;;;;;5056189;28;20075;-71
2022/12/14 09:31:18;;;;;;;32.05;17.70;;;-4.80;99.90;;;;;;5065076;28;20064;-70
2022/12/14 09:33:44;;;;;;;30.98;16.10;;;-4.80;99.90;;;;;;5039133;28;20393;-71
2022/12/14 09:36:15;;;;;;;34.63;16.95;;;-4.70;99.90;;;;;;5053572;28;20033;-71
2022/12/14 09:38:42;;;;;;;36.40;16.35;;;-4.60;99.90;;;;;;5049551;28;20449;-71
2022/12/14 09:41:32;;;;;;;35.38;17.02;;;-4.60;99.90;;;;;;5042729;28;20052;-71
2022/12/14 09:44:16;;;;;;;31.83;16.00;;;-4.50;99.90;;;;;;5059101;28;20156;-71
2022/12/14 09:47:06;;;;;;;33.13;17.42;;;-4.40;99.90;;;;;;5050627;28;20393;-71
2022/12/14 09:49:47;;;;;;;30.20;15.10;;;-4.30;99.90;;;;;;5053720;28;20029;-71
2022/12/14 09:52:18;;;;;;;32.60;15.77;;;-4.10;99.90;;;;;;5062442;28;20485;-71
2022/12/14 09:54:46;;;;;;;28.90;14.40;;;-4.00;99.90;;;;;;5051120;28;20044;-71
2022/12/14 09:57:32;;;;;;;29.33;14.38;;;-3.80;99.90;;;;;;5070914;28;20037;-71
2022/12/14 09:59:57;;;;;;;29.15;14.73;;;-3.60;99.90;;;;;;5072454;28;20044;-71
2022/12/14 10:02:50;;;;;;;30.73;14.13;;;-3.50;99.90;;;;;;5037769;28;20052;-71
2022/12/14 10:05:41;;;;;;;28.40;13.95;;;-3.20;99.90;;;;;;5051449;28;20059;-71
2022/12/14 10:08:22;;;;;;;32.22;15.48;;;-3.10;99.90;;;;;;5016479;28;20045;-71
2022/12/14 10:10:59;;;;;;;30.05;16.10;;;-3.10;99.90;;;;;;5051967;28;20087;-71
2022/12/14 10:13:52;;;;;;;28.30;14.98;;;-3.00;99.90;;;;;;5056205;28;20041;-71
2022/12/14 10:16:33;;;;;;;32.13;16.55;;;-2.90;99.90;;;;;;5032974;28;20486;-71
2022/12/14 10:19:24;;;;;;;30.15;15.63;;;-2.90;99.90;;;;;;5046141;28;20051;-71
2022/12/14 10:21:56;;;;;;;34.47;16.77;;;-2.80;99.90;;;;;;5024905;28;20475;-71
2022/12/14 10:24:29;;;;;;;31.33;16.40;;;-2.80;99.90;;;;;;5071164;28;20036;-71
2022/12/14 10:26:55;;;;;;;30.75;14.85;;;-2.70;99.90;;;;;;5067123;28;20090;-71
2022/12/14 10:29:21;;;;;;;28.73;15.55;;;-2.70;99.90;;;;;;5071252;28;20028;-71
2022/12/14 10:31:57;;;;;;;31.90;15.48;;;-2.60;99.90;;;;;;5071023;28;20037;-71
2022/12/14 10:34:28;;;;;;;28.42;15.30;;;-2.50;99.90;;;;;;5068090;28;20377;-71
2022/12/14 10:37:00;;;;;;;31.45;14.60;;;-2.50;99.90;;;;;;5054987;28;20037;-71
2022/12/14 10:39:42;;;;;;;26.40;13.57;;;-2.40;99.90;;;;;;5054445;28;20485;-71
2022/12/14 10:42:17;;;;;;;27.77;13.07;;;-2.30;99.90;;;;;;5052100;28;20405;-71
2022/12/14 10:44:58;;;;;;;28.02;12.75;;;-2.20;99.90;;;;;;5034283;28;20044;-71
2022/12/14 10:47:40;;;;;;;26.85;13.48;;;-2.00;99.90;;;;;;5051025;28;20108;-71
2022/12/14 10:50:24;;;;;;;27.38;13.88;;;-1.90;99.90;;;;;;5051132;28;20408;-71
2022/12/14 10:52:54;;;;;;;25.70;13.23;;;-1.90;99.90;;;;;;5050681;28;20044;-71
2022/12/14 10:55:27;;;;;;;23.90;12.88;;;-1.80;99.90;;;;;;5053830;28;20046;-72
2022/12/14 10:57:52;;;;;;;27.55;14.45;;;-1.70;99.90;;;;;;5062505;28;20048;-71
2022/12/14 11:00:18;;;;;;;29.95;14.48;;;-1.70;99.90;;;;;;5052639;28;20412;-71
2022/12/14 11:02:48;;;;;;;24.40;12.65;;;-1.70;99.90;;;;;;5046091;28;20516;-71
2022/12/14 11:05:32;;;;;;;26.13;13.25;;;-1.70;99.90;;;;;;5048556;28;20133;-71
2022/12/14 11:07:58;;;;;;;25.13;13.65;;;-1.70;99.90;;;;;;5038036;28;20041;-71
2022/12/14 11:10:25;;;;;;;26.45;13.27;;;-1.70;99.90;;;;;;5037652;28;20501;-73
2022/12/14 11:12:57;;;;;;;21.55;12.43;;;-1.70;99.90;;;;;;5046493;28;20163;-71
2022/12/14 11:15:28;;;;;;;27.95;13.90;;;-1.80;99.90;;;;;;5071434;28;20040;-71
2022/12/14 11:18:10;;;;;;;29.08;14.23;;;-1.90;99.90;;;;;;5071859;28;20127;-71
2022/12/14 11:20:36;;;;;;;;;;;-1.90;99.90;;;;;;5055995;28;20045;-71
2022/12/14 11:23:15;;;;;;;26.73;13.75;;;-1.90;99.90;;;;;;5053854;28;20004;-71
2022/12/14 11:25:44;;;;;;;25.17;14.05;;;-2.00;99.90;;;;;;5051370;28;20124;-71
2022/12/14 11:28:32;;;;;;;28.77;14.15;;;-2.00;99.90;;;;;;5034835;28;20040;-71
2022/12/14 11:31:05;;;;;;;27.83;13.70;;;-2.00;99.90;;;;;;5051345;28;20048;-71
2022/12/14 11:33:42;;;;;;;25.73;14.02;;;-2.10;99.90;;;;;;5034895;28;20082;-71
2022/12/14 11:36:21;;;;;;;24.88;13.27;;;-2.10;99.90;;;;;;5034442;28;20091;-71
2022/12/14 11:38:54;;;;;;;26.83;13.70;;;-2.10;99.90;;;;;;5035390;28;20393;-71
2022/12/14 11:41:21;;;;;;;25.92;12.95;;;-2.00;99.90;;;;;;5033483;28;20048;-71
2022/12/14 11:44:04;;;;;;;22.33;13.15;;;-2.00;99.90;;;;;;5064408;28;20446;-71
2022/12/14 11:46:50;;;;;;;27.45;13.95;;;-1.90;99.90;;;;;;5050625;28;20037;-71
2022/12/14 11:49:41;;;;;;;25.92;12.45;;;-1.90;99.90;;;;;;5051893;28;20048;-71
2022/12/14 11:52:17;;;;;;;27.67;13.20;;;-1.90;99.90;;;;;;5034577;28;20073;-71
2022/12/14 11:55:02;;;;;;;24.08;13.45;;;-1.90;99.90;;;;;;5034877;28;20123;-71
2022/12/14 11:57:33;;;;;;;23.13;12.43;;;-1.90;99.90;;;;;;5051214;28;20041;-71
2022/12/14 12:00:05;;;;;;;26.48;13.25;;;-1.90;99.90;;;;;;5034821;28;20049;-71
2022/12/14 12:02:37;;;;;;;22.25;11.55;;;-1.80;99.90;;;;;;5050184;28;20041;-71
2022/12/14 12:05:18;;;;;;;23.67;12.95;;;-1.70;99.90;;;;;;5050933;28;20056;-71
2022/12/14 12:07:52;;;;;;;21.67;12.67;;;-1.70;99.90;;;;;;5034799;28;20043;-71
2022/12/14 12:10:33;;;;;;;24.52;13.38;;;-1.70;99.90;;;;;;5051262;28;20429;-71
2022/12/14 12:13:01;;;;;;;21.20;11.73;;;-1.60;99.90;;;;;;5051505;28;20124;-71
2022/12/14 12:15:37;;;;;;;24.33;12.38;;;-1.70;99.90;;;;;;5034442;28;20279;-71
2022/12/14 12:18:22;;;;;;;23.27;12.13;;;-1.60;99.90;;;;;;5050654;28;20041;-71
2022/12/14 12:20:50;;;;;;;21.55;11.57;;;-1.60;99.90;;;;;;5052716;28;20047;-71
2022/12/14 12:23:32;;;;;;;21.60;11.38;;;-1.50;99.90;;;;;;5054834;28;20044;-71
2022/12/14 12:25:59;;;;;;;22.37;12.20;;;-1.50;99.90;;;;;;5045008;28;20037;-71
2022/12/14 12:28:35;;;;;;;22.92;12.10;;;-1.40;99.90;;;;;;5038198;28;20037;-71
2022/12/14 12:31:10;;;;;;;22.73;11.27;;;-1.50;99.90;;;;;;5054482;28;20116;-71
2022/12/14 12:33:51;;;;;;;22.42;11.93;;;-1.50;99.90;;;;;;5038161;28;20033;-71
2022/12/14 12:36:20;;;;;;;23.15;11.30;;;-1.40;99.90;;;;;;5037883;28;20037;-71
2022/12/14 12:39:16;;;;;;;21.17;11.20;;;-1.40;99.90;;;;;;5037917;28;20084;-71
2022/12/14 12:42:25;;;;;;;20.35;11.85;;;-1.20;99.90;;;;;;5045962;28;20424;-71
2022/12/14 12:44:59;;;;;;;23.15;12.32;;;-1.20;99.90;;;;;;5054428;28;20048;-71
2022/12/14 12:47:38;;;;;;;21.65;11.88;;;-1.10;99.90;;;;;;5037615;28;20047;-71
2022/12/14 12:50:13;;;;;;;22.73;12.23;;;-1.20;99.90;;;;;;5038132;28;20493;-71
2022/12/14 12:52:53;;;;;;;20.73;12.23;;;-1.20;99.90;;;;;;5037757;28;20415;-71
2022/12/14 12:55:21;;;;;;;20.77;11.82;;;-1.20;99.90;;;;;;5049215;28;20560;-71
2022/12/14 12:57:51;;;;;;;22.52;13.05;;;-1.20;99.90;;;;;;5017716;28;20087;-71
2022/12/14 13:00:26;;;;;;;21.88;12.45;;;-1.30;99.90;;;;;;5034130;28;20049;-71
2022/12/14 13:03:12;;;;;;;23.38;12.20;;;-1.30;99.90;;;;;;5017773;28;20073;-71
2022/12/14 13:05:40;;;;;;;21.48;12.57;;;-1.30;99.90;;;;;;5017652;28;20075;-71
2022/12/14 13:08:19;;;;;;;22.73;12.82;;;-1.30;99.90;;;;;;5019551;28;20091;-71